EGPK/PIK METAR and TAF weather

Enter ICAO airport designator
Station Type Date Time Source
EGPK METAR 2018/12/11 00:50 UTC NOAA

EGPK 110050Z 10004KT 9999 SCT029 07/05 Q1023


Station Type Date Time Source
EGPK Decoded METAR 2018/12/11 00:50 UTC NOAA

Prestwick Airport, United Kingdom (EGPK) 55-30N 004-35W 0M
Dec 10, 2018 - 07:50 PM EST / 2018.12.11 0050 UTC
Wind: from the E (100 degrees) at 5 MPH (4 KT):0
Visibility: greater than 7 mile(s):0
Sky conditions: partly cloudy
Temperature: 44 F (7 C)
Dew Point: 41 F (5 C)
Relative Humidity: 87%
Pressure (altimeter): 30.21 in. Hg (1023 hPa)
ob: EGPK 110050Z 10004KT 9999 SCT029 07/05 Q1023
cycle: 1

Station Type Date Time Source
EGPK TAF 2018/12/10 18:09 UTC NOAA

TAF EGPK 101703Z 1018/1118 12006KT 9999 FEW012 SCT035
BECMG 1101/1104 BKN012 PROB40
TEMPO 1104/1114 BKN008 PROB40
TEMPO 1112/1118 6000 -RA


Example: see airport list